Time;durP1;ratioP1;P1;durP2;ratioP2;P2;SDS_P1;SDS_P2;PMS_P1;PMS_P2;Temp;Humidity;BMP_temperature;BMP_pressure;BME280_temperature;BME280_humidity;BME280_pressure;Samples;Min_cycle;Max_cycle;Signal;HPM_P1;HPM_P2
2022/03/29 00:02:01;;;;;;;24.67;6.43;;;11.50;68.00;;;;;;10345248;28;20049;-67
2022/03/29 00:07:03;;;;;;;18.25;6.45;;;11.60;68.10;;;;;;10346445;28;20500;-69
2022/03/29 00:12:05;;;;;;;17.75;6.97;;;11.60;68.20;;;;;;10346287;28;20081;-67
2022/03/29 00:17:07;;;;;;;21.38;7.10;;;11.80;68.80;;;;;;10344264;28;20046;-67
2022/03/29 00:22:08;;;;;;;23.20;8.05;;;11.80;69.20;;;;;;10344642;28;20058;-67
2022/03/29 00:27:10;;;;;;;22.98;8.40;;;11.90;69.70;;;;;;10347109;28;20046;-67
2022/03/29 00:32:12;;;;;;;20.13;8.10;;;11.90;70.20;;;;;;10345836;28;20110;-67
2022/03/29 00:37:14;;;;;;;27.10;8.73;;;12.00;70.80;;;;;;10344760;28;20099;-67
2022/03/29 00:42:15;;;;;;;23.55;8.70;;;12.00;71.10;;;;;;10356670;28;20388;-67
2022/03/29 00:47:17;;;;;;;30.35;8.35;;;12.00;71.20;;;;;;10355652;28;20512;-67
2022/03/29 00:52:19;;;;;;;23.55;8.48;;;11.90;71.40;;;;;;10357143;28;20061;-67
2022/03/29 00:57:21;;;;;;;25.13;7.35;;;11.90;71.50;;;;;;10340023;28;20050;-67
2022/03/29 01:02:23;;;;;;;21.73;8.02;;;11.80;71.40;;;;;;10358610;28;20112;-67
2022/03/29 01:07:27;;;;;;;22.63;8.02;;;11.80;72.10;;;;;;10356583;28;20046;-67
2022/03/29 01:12:33;;;;;;;20.05;9.00;;;11.70;72.40;;;;;;10356146;28;20136;-67
2022/03/29 01:17:38;;;;;;;31.88;10.98;;;11.60;72.70;;;;;;10340311;28;20050;-67
2022/03/29 01:22:42;;;;;;;29.42;12.13;;;11.60;73.90;;;;;;10340497;28;20062;-67
2022/03/29 01:27:46;;;;;;;24.67;8.88;;;11.50;74.30;;;;;;10357311;28;20053;-67
2022/03/29 01:32:50;;;;;;;22.27;9.70;;;11.40;74.90;;;;;;10353147;28;20111;-67
2022/03/29 01:37:53;;;;;;;28.38;11.95;;;11.30;76.00;;;;;;10350061;28;20058;-67
2022/03/29 01:42:59;;;;;;;21.08;9.90;;;11.20;77.30;;;;;;10354458;28;20103;-67
2022/03/29 01:48:01;;;;;;;24.10;9.57;;;11.20;78.40;;;;;;10355308;28;20508;-67
2022/03/29 01:53:03;;;;;;;24.88;9.77;;;11.10;79.70;;;;;;10347300;28;20447;-67
2022/03/29 01:58:04;;;;;;;23.52;9.65;;;11.00;81.00;;;;;;10344915;28;20054;-68
2022/03/29 02:03:09;;;;;;;26.33;10.90;;;10.90;82.20;;;;;;10345211;28;20049;-66
2022/03/29 02:08:11;;;;;;;36.97;11.18;;;10.90;84.20;;;;;;10346935;28;20129;-66
2022/03/29 02:13:14;;;;;;;20.20;9.55;;;10.90;85.80;;;;;;10345049;28;20053;-65
2022/03/29 02:18:15;;;;;;;25.08;9.77;;;10.90;87.30;;;;;;10348340;28;20033;-65
2022/03/29 02:23:17;;;;;;;29.55;10.75;;;10.90;88.40;;;;;;10348161;28;20408;-65
2022/03/29 02:28:19;;;;;;;35.90;12.15;;;10.90;88.80;;;;;;10349076;28;20409;-65
2022/03/29 02:33:20;;;;;;;24.00;11.43;;;10.90;89.30;;;;;;10348969;28;20054;-65
2022/03/29 02:38:22;;;;;;;29.65;11.50;;;10.90;90.00;;;;;;10349235;28;20053;-65
2022/03/29 02:43:25;;;;;;;30.88;11.30;;;10.90;89.80;;;;;;10344342;28;20057;-66
2022/03/29 02:48:27;;;;;;;25.67;10.63;;;10.80;90.40;;;;;;10348188;28;20331;-65
2022/03/29 02:53:28;;;;;;;28.90;10.70;;;10.60;91.00;;;;;;10346349;28;20127;-65
2022/03/29 02:58:30;;;;;;;28.60;11.75;;;10.50;92.20;;;;;;10322069;28;20137;-66
2022/03/29 03:03:32;;;;;;;31.33;11.63;;;10.30;93.00;;;;;;10346533;28;20049;-66
2022/03/29 03:08:34;;;;;;;24.98;10.38;;;10.30;93.80;;;;;;10345569;28;20053;-65
2022/03/29 03:13:36;;;;;;;30.88;10.50;;;10.20;94.40;;;;;;10346364;28;20060;-65
2022/03/29 03:18:37;;;;;;;30.45;11.50;;;10.10;95.50;;;;;;10337352;28;20037;-65
2022/03/29 03:23:39;;;;;;;23.35;10.52;;;10.00;96.00;;;;;;10345208;28;25168;-66
2022/03/29 03:28:41;;;;;;;29.05;10.48;;;9.90;97.20;;;;;;10348254;28;20391;-67
2022/03/29 03:33:42;;;;;;;27.92;11.57;;;9.80;97.50;;;;;;10332110;28;20369;-67
2022/03/29 03:38:44;;;;;;;30.63;11.40;;;9.70;98.80;;;;;;10348637;28;20046;-66
2022/03/29 03:43:46;;;;;;;36.55;11.45;;;9.60;98.00;;;;;;10347839;28;20069;-66
2022/03/29 03:48:47;;;;;;;28.13;10.95;;;9.60;99.90;;;;;;10317259;28;20612;-66
2022/03/29 03:53:50;;;;;;;27.83;11.45;;;9.50;99.70;;;;;;10347256;28;20279;-66
2022/03/29 03:58:51;;;;;;;29.92;12.27;;;9.50;99.90;;;;;;10344362;28;20053;-67
2022/03/29 04:03:53;;;;;;;27.35;11.60;;;9.40;99.90;;;;;;10346196;28;20475;-67
2022/03/29 04:08:57;;;;;;;28.98;12.65;;;9.30;99.90;;;;;;10344538;28;20042;-66
2022/03/29 04:13:59;;;;;;;41.65;12.65;;;9.30;99.90;;;;;;10344627;28;20054;-66
2022/03/29 04:19:01;;;;;;;38.83;11.25;;;9.20;99.90;;;;;;10346984;28;20062;-66
2022/03/29 04:24:04;;;;;;;29.25;10.52;;;9.20;99.90;;;;;;10346657;28;20045;-67
2022/03/29 04:29:06;;;;;;;32.58;13.13;;;9.20;99.90;;;;;;10343541;28;20395;-66
2022/03/29 04:34:07;;;;;;;27.63;11.25;;;9.20;99.90;;;;;;10345879;28;20057;-66
2022/03/29 04:39:09;;;;;;;33.38;11.73;;;9.20;99.90;;;;;;10330762;28;20326;-67
2022/03/29 04:44:11;;;;;;;32.72;12.15;;;9.20;99.90;;;;;;10344234;28;20418;-66
2022/03/29 04:49:12;;;;;;;25.20;9.70;;;9.30;99.90;;;;;;10346481;28;20050;-66
2022/03/29 04:54:14;;;;;;;24.27;9.60;;;9.30;99.90;;;;;;10343355;28;20046;-66
2022/03/29 04:59:17;;;;;;;28.13;10.20;;;9.20;99.90;;;;;;10345314;28;20456;-66
2022/03/29 05:04:19;;;;;;;28.35;9.20;;;9.20;99.90;;;;;;10343367;28;20054;-66
2022/03/29 05:09:21;;;;;;;25.98;9.43;;;9.30;99.90;;;;;;10322674;28;20096;-63
2022/03/29 05:14:22;;;;;;;28.23;10.40;;;9.30;99.90;;;;;;10343708;28;20046;-64
2022/03/29 05:19:24;;;;;;;23.92;10.73;;;9.30;99.90;;;;;;10344781;28;20042;-63
2022/03/29 05:24:26;;;;;;;29.42;10.57;;;9.40;99.90;;;;;;10344957;28;20046;-63
2022/03/29 05:29:30;;;;;;;19.95;9.95;;;9.40;99.90;;;;;;10351819;28;20049;-63
2022/03/29 05:34:31;;;;;;;46.50;12.38;;;9.40;99.90;;;;;;10352247;28;20033;-64
2022/03/29 05:39:33;;;;;;;24.60;11.23;;;9.50;99.90;;;;;;10351052;28;20054;-64
2022/03/29 05:44:37;;;;;;;39.92;11.60;;;9.50;99.90;;;;;;10352486;28;20045;-63
2022/03/29 05:49:39;;;;;;;29.40;11.25;;;9.50;99.90;;;;;;10351178;28;20127;-64
2022/03/29 05:54:45;;;;;;;30.85;11.50;;;9.50;99.90;;;;;;10351093;28;20117;-63
2022/03/29 05:59:46;;;;;;;21.98;10.05;;;9.50;99.90;;;;;;10346893;28;20046;-63
2022/03/29 06:04:48;;;;;;;25.60;10.88;;;9.60;99.90;;;;;;10350316;28;20131;-63
2022/03/29 06:09:50;;;;;;;26.80;9.90;;;9.70;99.90;;;;;;10350489;28;20061;-62
2022/03/29 06:14:51;;;;;;;29.88;11.05;;;9.90;99.90;;;;;;10349575;28;20042;-62
2022/03/29 06:19:54;;;;;;;26.60;10.63;;;9.90;99.90;;;;;;10351211;28;20050;-62
2022/03/29 06:24:58;;;;;;;28.75;10.07;;;10.10;99.50;;;;;;10349210;28;20046;-62
2022/03/29 06:30:00;;;;;;;26.50;11.68;;;10.20;98.10;;;;;;10349787;28;20046;-62
2022/03/29 06:35:01;;;;;;;27.90;10.57;;;10.30;97.30;;;;;;10349912;28;20101;-62
2022/03/29 06:40:03;;;;;;;27.10;12.13;;;10.40;97.70;;;;;;10346383;28;20389;-61
2022/03/29 06:45:07;;;;;;;24.58;9.45;;;10.50;96.70;;;;;;10348348;28;20054;-62
2022/03/29 06:50:10;;;;;;;28.85;12.10;;;10.50;94.60;;;;;;10348649;28;20061;-62
2022/03/29 06:55:13;;;;;;;27.88;10.45;;;10.60;93.70;;;;;;10348689;28;20060;-62
2022/03/29 07:00:16;;;;;;;26.90;10.77;;;10.70;92.20;;;;;;10331634;28;20046;-62
2022/03/29 07:05:19;;;;;;;25.90;8.95;;;10.80;91.70;;;;;;10349921;28;20046;-62
2022/03/29 07:15:41;;;;;;;20.13;8.55;;;11.00;87.60;;;;;;10347523;28;20058;-64
2022/03/29 07:20:43;;;;;;;22.90;8.43;;;11.20;85.20;;;;;;10347925;28;20127;-64
2022/03/29 07:25:45;;;;;;;19.02;7.55;;;11.30;83.30;;;;;;10347471;28;20042;-64
2022/03/29 07:30:46;;;;;;;16.65;7.38;;;11.40;82.20;;;;;;10348415;28;20042;-64
2022/03/29 07:35:49;;;;;;;19.10;6.97;;;11.50;80.20;;;;;;10337140;28;20052;-64
2022/03/29 07:40:51;;;;;;;18.45;7.18;;;11.60;79.20;;;;;;10346393;28;20467;-64
2022/03/29 07:45:52;;;;;;;14.85;5.93;;;11.80;79.20;;;;;;10347062;28;20458;-64
2022/03/29 07:50:55;;;;;;;13.55;6.15;;;11.90;78.40;;;;;;10346460;28;20499;-61
2022/03/29 07:55:57;;;;;;;14.93;6.47;;;11.90;77.00;;;;;;10347009;28;20064;-62
2022/03/29 08:01:00;;;;;;;13.93;6.13;;;12.00;75.10;;;;;;10343183;28;20111;-62
2022/03/29 08:06:04;;;;;;;15.55;6.10;;;12.00;75.50;;;;;;10348105;28;20042;-62
2022/03/29 08:11:08;;;;;;;17.77;7.38;;;12.00;75.00;;;;;;10344343;28;20061;-62
2022/03/29 08:16:09;;;;;;;14.45;6.60;;;12.10;76.40;;;;;;10344850;28;20069;-61
2022/03/29 08:26:33;;;;;;;14.20;6.90;;;12.10;76.00;;;;;;10345279;28;20068;-62
2022/03/29 08:31:34;;;;;;;17.13;6.85;;;12.10;75.70;;;;;;10345276;28;20050;-65
2022/03/29 08:36:38;;;;;;;18.83;6.25;;;12.30;76.00;;;;;;10344832;28;20053;-64
2022/03/29 08:41:46;;;;;;;13.18;6.20;;;12.40;74.70;;;;;;10347131;28;20431;-64
2022/03/29 08:46:49;;;;;;;16.65;6.25;;;12.60;74.50;;;;;;10346619;28;20099;-64
2022/03/29 08:51:51;;;;;;;15.68;5.47;;;12.50;74.10;;;;;;10341677;28;20050;-64
2022/03/29 08:56:53;;;;;;;11.98;6.00;;;12.60;73.40;;;;;;10343592;28;20065;-64
2022/03/29 09:01:57;;;;;;;16.92;6.53;;;12.60;73.60;;;;;;10346673;28;20412;-65
2022/03/29 09:07:03;;;;;;;16.60;7.25;;;12.70;73.00;;;;;;10351592;28;20054;-64
2022/03/29 09:12:17;;;;;;;20.58;5.65;;;12.70;73.40;;;;;;10353087;28;20104;-63
2022/03/29 09:17:31;;;;;;;19.80;7.50;;;12.80;72.70;;;;;;10351850;28;20041;-64
2022/03/29 09:22:55;;;;;;;26.67;10.05;;;13.00;73.80;;;;;;10350364;28;20056;-63
2022/03/29 09:27:59;;;;;;;18.80;8.10;;;13.20;73.40;;;;;;10351709;28;20057;-64
2022/03/29 09:33:07;;;;;;;19.63;7.53;;;13.40;71.80;;;;;;10353088;28;20057;-64
2022/03/29 09:38:45;;;;;;;19.20;7.03;;;13.50;71.30;;;;;;10350182;28;20498;-64
2022/03/29 09:43:58;;;;;;;;;;;13.90;68.80;;;;;;10270652;28;20096;-64
2022/03/29 09:49:02;;;;;;;14.50;6.85;;;14.20;68.20;;;;;;10348457;28;19948;-64
2022/03/29 09:54:03;;;;;;;14.00;6.47;;;14.40;67.80;;;;;;10351081;28;20049;-64
2022/03/29 09:59:09;;;;;;;17.25;6.80;;;14.60;66.10;;;;;;10349238;28;20053;-64
2022/03/29 10:04:11;;;;;;;19.42;6.75;;;14.90;65.40;;;;;;10348590;28;20536;-64
2022/03/29 10:09:27;;;;;;;15.75;6.82;;;14.80;65.20;;;;;;10351904;28;20073;-64
2022/03/29 10:14:31;;;;;;;15.75;6.82;;;15.00;65.30;;;;;;10336481;28;20048;-62
2022/03/29 10:19:34;;;;;;;13.70;7.38;;;15.10;64.90;;;;;;10347324;28;20069;-62
2022/03/29 10:24:37;;;;;;;14.07;6.90;;;15.20;64.20;;;;;;10349007;28;20049;-62
2022/03/29 10:29:41;;;;;;;16.30;7.88;;;15.30;64.20;;;;;;10350479;28;20053;-62
2022/03/29 10:35:04;;;;;;;12.60;6.13;;;15.30;64.10;;;;;;10349531;28;20049;-63
2022/03/29 10:40:07;;;;;;;11.48;6.32;;;15.30;63.40;;;;;;10347876;28;20054;-62
2022/03/29 10:45:16;;;;;;;17.23;6.88;;;15.20;63.00;;;;;;10350564;28;20046;-62
2022/03/29 10:50:46;;;;;;;12.85;6.55;;;15.50;63.80;;;;;;10348825;28;20516;-62
2022/03/29 10:56:10;;;;;;;17.98;6.03;;;15.50;62.40;;;;;;10349213;28;20050;-62
2022/03/29 11:01:15;;;;;;;17.58;6.43;;;15.50;62.60;;;;;;10344337;28;20054;-62
2022/03/29 11:06:17;;;;;;;12.10;5.50;;;15.70;60.70;;;;;;10347822;28;20128;-62
2022/03/29 11:11:43;;;;;;;16.02;6.50;;;15.90;60.50;;;;;;10348607;28;20046;-62
2022/03/29 11:16:44;;;;;;;15.13;6.90;;;15.90;60.70;;;;;;10327986;28;20049;-63
2022/03/29 11:21:46;;;;;;;14.57;5.72;;;16.10;59.90;;;;;;10334457;28;20063;-62
2022/03/29 11:26:54;;;;;;;17.33;6.05;;;16.20;60.00;;;;;;10320841;28;20527;-63
2022/03/29 11:31:59;;;;;;;13.75;5.35;;;16.30;59.00;;;;;;10343634;28;20131;-62
2022/03/29 11:37:01;;;;;;;10.27;4.60;;;16.40;58.90;;;;;;10346545;28;20050;-62
2022/03/29 11:42:03;;;;;;;9.27;4.47;;;16.40;56.50;;;;;;10347879;28;20045;-62
2022/03/29 11:47:07;;;;;;;10.23;4.70;;;16.80;55.50;;;;;;10346471;28;20119;-62
2022/03/29 11:52:14;;;;;;;12.40;5.50;;;17.00;54.90;;;;;;10346578;28;20054;-62
2022/03/29 11:57:18;;;;;;;7.90;4.00;;;16.80;54.30;;;;;;10345264;28;20057;-63
2022/03/29 12:02:23;;;;;;;13.60;4.82;;;17.00;54.60;;;;;;10345791;28;20077;-66
2022/03/29 12:07:42;;;;;;;8.80;4.40;;;17.10;54.70;;;;;;10345544;28;20046;-65
2022/03/29 12:12:51;;;;;;;10.02;3.65;;;17.20;54.50;;;;;;10344076;28;20499;-65
2022/03/29 12:23:27;;;;;;;14.65;4.75;;;17.30;53.80;;;;;;10330350;28;20053;-63
2022/03/29 12:28:30;;;;;;;9.30;4.20;;;16.90;54.20;;;;;;10344023;28;20037;-63
2022/03/29 12:33:34;;;;;;;10.05;3.75;;;17.20;54.70;;;;;;10345104;28;20062;-63
2022/03/29 12:38:45;;;;;;;7.60;3.55;;;17.30;53.80;;;;;;10342817;28;20034;-63
2022/03/29 12:43:53;;;;;;;8.30;3.65;;;17.30;53.50;;;;;;10343844;28;20111;-63
2022/03/29 12:48:56;;;;;;;10.40;4.30;;;17.40;54.00;;;;;;10324167;28;20054;-63
2022/03/29 12:54:00;;;;;;;10.43;5.28;;;17.70;52.80;;;;;;10345895;28;20061;-63
2022/03/29 12:59:24;;;;;;;9.43;4.28;;;17.70;53.00;;;;;;10345540;28;20058;-64
2022/03/29 13:04:37;;;;;;;11.90;4.68;;;17.00;53.70;;;;;;10342466;28;20058;-64
2022/03/29 13:09:59;;;;;;;10.63;4.82;;;17.30;53.80;;;;;;10326417;28;20042;-64
2022/03/29 13:15:36;;;;;;;6.72;4.05;;;16.40;54.70;;;;;;10342082;28;20054;-64
2022/03/29 13:20:38;;;;;;;9.05;4.40;;;16.50;55.90;;;;;;10343421;28;20072;-64
2022/03/29 13:25:40;;;;;;;10.55;3.88;;;16.40;55.90;;;;;;10343949;28;20053;-64
2022/03/29 13:30:41;;;;;;;8.43;3.63;;;16.70;55.50;;;;;;10343825;28;20058;-64
2022/03/29 13:35:44;;;;;;;10.82;3.65;;;16.80;54.80;;;;;;10341130;28;20099;-64
2022/03/29 13:40:48;;;;;;;12.60;3.47;;;17.10;53.70;;;;;;10340580;28;20382;-64
2022/03/29 13:45:50;;;;;;;10.98;3.42;;;17.10;51.70;;;;;;10343002;28;20274;-64
2022/03/29 13:50:53;;;;;;;9.93;3.67;;;17.20;51.70;;;;;;10349054;28;20046;-64
2022/03/29 13:55:55;;;;;;;8.88;3.75;;;17.30;52.60;;;;;;10351990;28;20057;-64
2022/03/29 14:00:59;;;;;;;8.38;3.28;;;17.40;52.40;;;;;;10349948;28;20050;-64
2022/03/29 14:06:02;;;;;;;7.78;3.45;;;17.50;52.70;;;;;;10351507;28;20519;-64
2022/03/29 14:11:03;;;;;;;7.88;1.95;;;17.70;51.90;;;;;;10352441;28;20065;-64
2022/03/29 14:16:06;;;;;;;4.25;2.10;;;17.50;49.30;;;;;;10347563;28;20049;-65
2022/03/29 14:21:08;;;;;;;3.88;1.80;;;17.50;49.60;;;;;;10320461;28;20057;-66
2022/03/29 14:26:10;;;;;;;5.93;1.98;;;17.60;49.70;;;;;;10348962;28;20423;-66
2022/03/29 14:31:12;;;;;;;5.10;2.03;;;17.50;49.50;;;;;;10346677;28;20037;-62
2022/03/29 14:36:15;;;;;;;7.70;2.55;;;17.40;50.50;;;;;;10347832;28;20042;-63
2022/03/29 14:41:17;;;;;;;5.90;2.45;;;17.40;50.50;;;;;;10325214;28;20439;-63
2022/03/29 14:46:18;;;;;;;6.65;3.00;;;17.40;51.10;;;;;;10307889;28;20133;-63
2022/03/29 14:51:21;;;;;;;8.35;2.67;;;17.40;52.40;;;;;;10309467;28;20053;-63
2022/03/29 14:56:23;;;;;;;5.93;1.98;;;17.20;51.40;;;;;;10307951;28;20069;-62
2022/03/29 15:01:25;;;;;;;8.43;2.67;;;17.10;51.60;;;;;;10308864;28;20077;-63
2022/03/29 15:06:28;;;;;;;5.40;2.63;;;17.10;51.90;;;;;;10309910;28;20042;-63
2022/03/29 15:11:29;;;;;;;9.50;2.55;;;17.10;53.30;;;;;;10308657;28;20096;-63
2022/03/29 15:16:31;;;;;;;7.63;2.17;;;16.90;53.50;;;;;;10307356;28;20054;-63
2022/03/29 15:21:33;;;;;;;4.72;2.15;;;16.90;54.10;;;;;;10308552;28;20130;-62
2022/03/29 15:26:35;;;;;;;4.75;1.98;;;16.80;53.50;;;;;;10306497;28;20054;-63
2022/03/29 15:31:36;;;;;;;6.57;2.65;;;16.90;54.40;;;;;;10306506;28;20053;-63
2022/03/29 15:36:39;;;;;;;4.03;1.48;;;16.80;53.00;;;;;;10307317;28;20046;-63
2022/03/29 15:41:40;;;;;;;3.50;0.90;;;16.70;51.50;;;;;;10306382;28;20113;-62
2022/03/29 15:46:42;;;;;;;2.05;0.70;;;16.70;52.20;;;;;;10304272;28;20061;-62
2022/03/29 15:51:45;;;;;;;4.90;1.40;;;16.60;51.80;;;;;;10307944;28;20458;-63
2022/03/29 15:56:47;;;;;;;3.80;0.60;;;16.60;53.70;;;;;;10307953;28;20109;-62
2022/03/29 16:01:51;;;;;;;2.90;0.70;;;16.50;53.40;;;;;;10306688;28;21063;-63
2022/03/29 16:06:53;;;;;;;7.57;1.17;;;16.50;53.70;;;;;;10306260;28;20512;-63
2022/03/29 16:11:55;;;;;;;3.97;0.90;;;16.50;54.70;;;;;;10306803;28;20054;-64
2022/03/29 16:16:57;;;;;;;2.97;0.80;;;16.50;55.30;;;;;;10304263;28;20449;-63
2022/03/29 16:21:59;;;;;;;4.63;1.25;;;16.40;55.30;;;;;;10282507;28;20057;-64
2022/03/29 16:27:01;;;;;;;3.00;0.90;;;16.40;55.30;;;;;;10305659;28;20054;-64
2022/03/29 16:32:03;;;;;;;3.15;0.73;;;16.30;55.50;;;;;;10305577;28;20105;-63
2022/03/29 16:37:04;;;;;;;2.92;0.90;;;16.30;56.10;;;;;;10309858;28;20124;-64
2022/03/29 16:42:06;;;;;;;4.93;1.00;;;16.30;56.40;;;;;;10326037;28;20070;-65
2022/03/29 16:47:09;;;;;;;4.32;1.45;;;16.30;56.50;;;;;;10321986;28;20131;-65
2022/03/29 16:52:12;;;;;;;5.82;1.30;;;16.30;56.40;;;;;;10344083;28;20046;-65
2022/03/29 16:57:15;;;;;;;9.60;1.20;;;16.20;57.40;;;;;;10343604;28;20396;-66
2022/03/29 17:02:18;;;;;;;4.40;1.33;;;16.20;57.80;;;;;;10343795;28;20049;-64
2022/03/29 17:07:21;;;;;;;6.35;1.40;;;16.20;57.80;;;;;;10343789;28;20054;-64
2022/03/29 17:12:23;;;;;;;3.83;0.88;;;16.10;58.30;;;;;;10344469;28;20050;-63
2022/03/29 17:17:29;;;;;;;5.00;1.17;;;16.10;58.90;;;;;;10342748;28;20558;-63
2022/03/29 17:22:31;;;;;;;8.13;2.20;;;15.90;58.70;;;;;;10345023;28;20119;-63
2022/03/29 17:27:33;;;;;;;4.50;1.50;;;15.70;59.00;;;;;;10350388;28;20661;-64
2022/03/29 17:32:35;;;;;;;5.28;1.45;;;15.60;59.90;;;;;;10352721;28;20041;-64
2022/03/29 17:37:41;;;;;;;3.90;1.58;;;15.40;60.60;;;;;;10350666;28;20049;-64
2022/03/29 17:42:44;;;;;;;8.10;1.45;;;15.20;61.40;;;;;;10348576;28;20052;-64
2022/03/29 17:47:46;;;;;;;11.77;1.65;;;15.10;62.30;;;;;;10348911;28;20041;-64
2022/03/29 17:52:48;;;;;;;4.15;1.60;;;15.00;63.40;;;;;;10350097;28;20042;-64
2022/03/29 17:57:51;;;;;;;4.45;1.58;;;14.80;64.10;;;;;;10354740;28;20056;-63
2022/03/29 18:02:52;;;;;;;3.38;1.67;;;14.60;65.90;;;;;;10353729;28;20138;-64
2022/03/29 18:07:54;;;;;;;8.35;1.92;;;14.50;67.70;;;;;;10351056;28;20500;-63
2022/03/29 18:12:56;;;;;;;7.25;2.15;;;14.20;68.70;;;;;;10343120;28;20062;-64
2022/03/29 18:17:58;;;;;;;6.45;1.65;;;14.00;69.50;;;;;;10350638;28;20120;-66
2022/03/29 18:23:01;;;;;;;11.15;2.35;;;13.90;68.80;;;;;;10335740;28;20128;-67
2022/03/29 18:28:03;;;;;;;5.38;1.70;;;13.70;69.10;;;;;;10348955;28;20140;-68
2022/03/29 18:33:05;;;;;;;7.05;1.30;;;13.60;71.50;;;;;;10350083;28;20108;-66
2022/03/29 18:38:10;;;;;;;4.00;1.45;;;13.40;75.40;;;;;;10335205;28;20167;-66
2022/03/29 18:43:13;;;;;;;7.43;2.33;;;13.30;74.50;;;;;;10308832;28;25942;-66
2022/03/29 18:48:15;;;;;;;6.07;3.17;;;13.10;76.60;;;;;;10307986;28;20047;-67
2022/03/29 18:53:16;;;;;;;13.05;2.40;;;13.00;77.20;;;;;;10308574;28;20105;-67
2022/03/29 18:58:19;;;;;;;9.80;4.13;;;12.80;78.50;;;;;;10309127;28;20049;-68
2022/03/29 19:03:23;;;;;;;8.00;2.20;;;12.60;79.90;;;;;;10305013;28;20057;-70
2022/03/29 19:08:25;;;;;;;5.68;2.35;;;12.50;81.20;;;;;;10307724;28;20081;-68
2022/03/29 19:13:27;;;;;;;7.63;2.28;;;12.30;82.00;;;;;;10308492;28;20077;-67
2022/03/29 19:18:28;;;;;;;11.93;3.55;;;12.10;82.70;;;;;;10307027;28;20046;-69
2022/03/29 19:23:30;;;;;;;8.25;2.10;;;12.10;82.80;;;;;;10309012;28;20644;-68
2022/03/29 19:28:34;;;;;;;6.53;3.67;;;11.90;83.00;;;;;;10310138;28;20046;-68
2022/03/29 19:33:36;;;;;;;7.35;3.30;;;11.80;82.90;;;;;;10307552;28;20074;-68
2022/03/29 19:39:32;;;;;;;9.15;2.72;;;11.70;83.10;;;;;;10322135;28;20046;-68
2022/03/29 19:44:40;;;;;;;6.93;2.00;;;11.70;84.10;;;;;;10326830;28;20578;-68
2022/03/29 19:49:44;;;;;;;11.07;2.95;;;11.60;82.00;;;;;;10346635;28;20042;-68
2022/03/29 19:54:48;;;;;;;12.02;4.15;;;11.50;78.40;;;;;;10348760;28;20042;-69
2022/03/29 19:59:50;;;;;;;8.77;3.22;;;11.50;75.70;;;;;;10346992;28;20061;-68
2022/03/29 20:04:57;;;;;;;8.20;3.67;;;11.60;74.90;;;;;;10346282;28;20056;-69
2022/03/29 20:10:01;;;;;;;14.38;4.63;;;11.70;73.90;;;;;;10333355;28;20068;-68
2022/03/29 20:15:03;;;;;;;9.88;3.35;;;11.60;73.40;;;;;;10336789;28;20049;-67
2022/03/29 20:20:08;;;;;;;8.07;3.28;;;11.70;73.30;;;;;;10338863;28;20171;-67
2022/03/29 20:25:10;;;;;;;8.73;3.40;;;11.60;73.00;;;;;;10341318;28;20049;-67
2022/03/29 20:30:12;;;;;;;10.38;3.63;;;11.60;72.50;;;;;;10341915;28;20508;-68
2022/03/29 20:35:15;;;;;;;9.18;2.60;;;11.50;72.00;;;;;;10333671;28;20050;-67
2022/03/29 20:40:17;;;;;;;4.10;1.92;;;11.50;71.00;;;;;;10339205;28;20049;-68
2022/03/29 20:45:19;;;;;;;8.18;3.28;;;11.50;69.40;;;;;;10341302;28;20054;-68
2022/03/29 20:50:20;;;;;;;6.75;2.92;;;11.50;68.80;;;;;;10343001;28;20041;-67
2022/03/29 20:55:22;;;;;;;10.85;2.88;;;11.60;68.30;;;;;;10341663;28;20046;-68
2022/03/29 21:00:24;;;;;;;7.90;2.90;;;11.50;67.70;;;;;;10351763;28;20046;-67
2022/03/29 21:05:26;;;;;;;9.63;3.47;;;11.50;67.80;;;;;;10350547;28;21286;-67
2022/03/29 21:10:29;;;;;;;10.23;4.45;;;11.40;68.10;;;;;;10353077;28;20053;-67
2022/03/29 21:15:31;;;;;;;9.52;3.95;;;11.30;68.50;;;;;;10350794;28;20112;-68
2022/03/29 21:20:36;;;;;;;10.82;4.25;;;11.30;69.20;;;;;;10350285;28;20065;-67
2022/03/29 21:25:38;;;;;;;10.88;4.07;;;11.20;69.20;;;;;;10332403;28;20555;-68
2022/03/29 21:30:41;;;;;;;13.43;3.67;;;11.20;69.20;;;;;;10348899;28;20647;-68
2022/03/29 21:35:43;;;;;;;10.25;3.70;;;11.20;69.40;;;;;;10346265;28;20042;-69
2022/03/29 21:40:47;;;;;;;11.55;4.05;;;11.20;69.50;;;;;;10351614;28;20050;-69
2022/03/29 21:45:49;;;;;;;10.32;4.28;;;11.20;69.60;;;;;;10351884;28;20054;-68
2022/03/29 21:50:50;;;;;;;11.20;4.13;;;11.20;69.40;;;;;;10348552;28;20456;-68
2022/03/29 21:55:54;;;;;;;7.78;3.83;;;11.20;69.20;;;;;;10348213;28;20117;-69
2022/03/29 22:00:58;;;;;;;9.30;4.00;;;11.20;69.10;;;;;;10347503;28;20030;-69
2022/03/29 22:06:00;;;;;;;11.73;3.75;;;11.20;68.50;;;;;;10349021;28;20153;-68
2022/03/29 22:11:03;;;;;;;7.25;3.55;;;11.20;68.30;;;;;;10347135;28;20108;-68
2022/03/29 22:16:05;;;;;;;8.43;4.15;;;11.20;67.70;;;;;;10336382;28;20034;-68
2022/03/29 22:21:06;;;;;;;9.70;4.30;;;11.20;67.70;;;;;;10346807;28;20117;-68
2022/03/29 22:26:08;;;;;;;9.35;4.97;;;11.20;67.20;;;;;;10347320;28;20054;-68
2022/03/29 22:31:10;;;;;;;15.77;5.15;;;11.20;67.30;;;;;;10342958;28;20057;-68
2022/03/29 22:36:13;;;;;;;11.55;4.75;;;11.20;67.20;;;;;;10329453;28;20062;-68
2022/03/29 22:41:17;;;;;;;13.10;5.25;;;11.20;66.90;;;;;;10331345;28;20049;-68
2022/03/29 22:46:19;;;;;;;14.43;5.00;;;11.30;67.10;;;;;;10353710;28;20096;-68
2022/03/29 22:51:20;;;;;;;16.08;5.63;;;11.30;67.10;;;;;;10324621;28;20125;-67
2022/03/29 23:01:42;;;;;;;15.35;5.82;;;11.20;67.20;;;;;;10326195;28;20133;-67
2022/03/29 23:06:44;;;;;;;13.35;6.30;;;11.20;67.50;;;;;;10346764;28;20053;-67
2022/03/29 23:11:47;;;;;;;13.90;5.88;;;11.20;67.80;;;;;;10347049;28;20046;-68
2022/03/29 23:16:48;;;;;;;12.02;5.47;;;11.20;67.80;;;;;;10344469;28;20104;-68
2022/03/29 23:21:50;;;;;;;16.77;5.95;;;11.10;67.60;;;;;;10346102;28;20583;-65
2022/03/29 23:26:53;;;;;;;14.95;6.15;;;11.10;67.80;;;;;;10321565;28;20145;-67
2022/03/29 23:31:55;;;;;;;18.55;6.45;;;11.10;67.90;;;;;;10345767;28;20041;-67
2022/03/29 23:36:57;;;;;;;16.95;6.55;;;11.10;68.60;;;;;;10343960;28;20046;-65
2022/03/29 23:41:58;;;;;;;16.00;5.20;;;11.00;69.50;;;;;;10345403;28;20088;-65
2022/03/29 23:47:00;;;;;;;17.40;6.13;;;11.00;70.00;;;;;;10346370;28;20116;-65
2022/03/29 23:52:03;;;;;;;16.83;6.72;;;11.00;70.60;;;;;;10344709;28;20114;-65
2022/03/29 23:57:05;;;;;;;14.57;6.50;;;10.90;71.40;;;;;;10344502;28;20049;-65
